createdAt,value
2022-11-10T00:02:04.971Z,3.80
2022-11-10T00:04:50.245Z,4.32
2022-11-10T00:07:35.586Z,4.45
2022-11-10T00:10:20.745Z,4.40
2022-11-10T00:13:05.773Z,4.50
2022-11-10T00:16:09.837Z,4.35
2022-11-10T00:18:55.111Z,3.95
2022-11-10T00:21:40.423Z,4.60
2022-11-10T00:24:25.731Z,4.03
2022-11-10T00:27:11.240Z,4.43
2022-11-10T00:29:56.598Z,4.50
2022-11-10T00:32:41.895Z,5.00
2022-11-10T00:35:27.112Z,4.30
2022-11-10T00:38:11.971Z,4.60
2022-11-10T00:40:58.828Z,4.30
2022-11-10T00:43:43.668Z,4.50
2022-11-10T00:46:28.709Z,4.30
2022-11-10T00:49:13.591Z,4.18
2022-11-10T00:51:58.728Z,4.22
2022-11-10T00:54:43.983Z,4.30
2022-11-10T00:57:29.291Z,4.10
2022-11-10T01:00:14.688Z,4.40
2022-11-10T01:02:59.963Z,4.05
2022-11-10T01:05:45.235Z,4.45
2022-11-10T01:08:30.169Z,4.28
2022-11-10T01:11:20.963Z,4.72
2022-11-10T01:14:06.079Z,4.40
2022-11-10T01:16:51.448Z,4.60
2022-11-10T01:19:36.592Z,4.30
2022-11-10T01:22:21.860Z,4.28
2022-11-10T01:25:07.914Z,4.40
2022-11-10T01:27:53.187Z,4.68
2022-11-10T01:30:38.148Z,4.80
2022-11-10T01:33:23.825Z,4.82
2022-11-10T01:36:10.490Z,4.25
2022-11-10T01:38:55.407Z,4.40
2022-11-10T01:41:40.583Z,4.35
2022-11-10T01:44:26.388Z,4.22
2022-11-10T01:47:11.601Z,4.20
2022-11-10T01:49:56.769Z,4.53
2022-11-10T01:52:46.795Z,4.25
2022-11-10T01:55:32.351Z,4.20
2022-11-10T01:58:21.982Z,4.28
2022-11-10T02:01:08.372Z,4.60
2022-11-10T02:04:00.659Z,4.10
2022-11-10T02:06:47.400Z,4.47
2022-11-10T02:09:32.631Z,4.40
2022-11-10T02:12:36.630Z,4.30
2022-11-10T02:15:22.709Z,4.50
2022-11-10T02:18:07.878Z,4.30
2022-11-10T02:20:53.054Z,4.57
2022-11-10T02:23:38.223Z,4.63
2022-11-10T02:26:27.634Z,4.50
2022-11-10T02:29:12.842Z,4.50
2022-11-10T02:31:57.730Z,4.15
2022-11-10T02:34:43.310Z,4.30
2022-11-10T02:37:28.345Z,4.60
2022-11-10T02:40:13.363Z,4.65
2022-11-10T02:42:58.368Z,4.97
2022-11-10T02:45:46.092Z,4.35
2022-11-10T02:48:31.056Z,3.85
2022-11-10T02:51:16.329Z,4.18
2022-11-10T02:54:01.635Z,4.20
2022-11-10T02:56:46.931Z,4.38
2022-11-10T02:59:31.717Z,4.18
2022-11-10T03:02:16.791Z,4.18
2022-11-10T03:05:01.967Z,3.97
2022-11-10T03:07:54.157Z,4.28
2022-11-10T03:10:39.136Z,4.25
2022-11-10T03:13:32.109Z,4.15
2022-11-10T03:16:25.190Z,4.18
2022-11-10T03:19:10.370Z,4.20
2022-11-10T03:21:55.665Z,4.47
2022-11-10T03:24:40.798Z,3.85
2022-11-10T03:27:25.918Z,4.45
2022-11-10T03:30:11.261Z,4.05
2022-11-10T03:32:56.203Z,4.43
2022-11-10T03:35:41.414Z,4.30
2022-11-10T03:38:26.565Z,4.53
2022-11-10T03:41:19.268Z,4.03
2022-11-10T03:44:05.359Z,4.05
2022-11-10T03:46:51.835Z,4.10
2022-11-10T03:49:37.167Z,4.20
2022-11-10T03:52:22.499Z,4.90
2022-11-10T03:55:08.166Z,4.15
2022-11-10T03:57:53.107Z,4.22
2022-11-10T04:00:38.396Z,4.50
2022-11-10T04:03:24.545Z,4.10
2022-11-10T04:06:29.902Z,4.45
2022-11-10T04:09:15.013Z,3.90
2022-11-10T04:12:24.477Z,4.10
2022-11-10T04:15:30.005Z,4.72
2022-11-10T04:18:21.734Z,4.45
2022-11-10T04:21:06.713Z,4.13
2022-11-10T04:23:52.091Z,4.75
2022-11-10T04:26:38.752Z,4.55
2022-11-10T04:29:23.745Z,4.03
2022-11-10T04:32:08.957Z,4.63
2022-11-10T04:34:53.841Z,4.03
2022-11-10T04:37:39.143Z,4.10
2022-11-10T04:40:24.071Z,4.57
2022-11-10T04:43:09.096Z,3.85
2022-11-10T04:45:54.711Z,4.18
2022-11-10T04:48:39.700Z,4.15
2022-11-10T04:51:30.977Z,4.28
2022-11-10T04:54:16.240Z,3.88
2022-11-10T04:57:01.587Z,4.03
2022-11-10T04:59:46.967Z,4.13
2022-11-10T05:02:36.873Z,4.13
2022-11-10T05:05:24.315Z,4.03
2022-11-10T05:08:09.993Z,4.30
2022-11-10T05:10:55.113Z,4.45
2022-11-10T05:13:40.573Z,4.38
2022-11-10T05:16:25.564Z,4.30
2022-11-10T05:19:10.594Z,4.28
2022-11-10T05:21:55.822Z,4.35
2022-11-10T05:24:40.880Z,4.30
2022-11-10T05:27:26.132Z,4.55
2022-11-10T05:30:11.349Z,4.18
2022-11-10T05:32:56.313Z,4.15
2022-11-10T05:35:41.483Z,3.92
2022-11-10T05:38:26.760Z,7.28
2022-11-10T05:41:12.311Z,4.53
2022-11-10T05:43:57.157Z,4.22
2022-11-10T05:46:42.734Z,3.83
2022-11-10T05:49:27.697Z,4.05
2022-11-10T05:52:12.959Z,4.43
2022-11-10T05:54:58.168Z,4.30
2022-11-10T05:57:47.761Z,4.32
2022-11-10T06:00:33.323Z,4.20
2022-11-10T06:03:19.686Z,4.45
2022-11-10T06:06:05.514Z,4.13
2022-11-10T06:08:50.847Z,3.97
2022-11-10T06:11:36.085Z,4.97
2022-11-10T06:14:21.510Z,3.50
2022-11-10T06:17:07.155Z,4.40
2022-11-10T06:19:52.261Z,3.95
2022-11-10T06:22:37.484Z,4.80
2022-11-10T06:25:22.514Z,4.25
2022-11-10T06:28:09.287Z,4.68
2022-11-10T06:30:57.397Z,4.43
2022-11-10T06:33:42.782Z,4.53
2022-11-10T06:36:27.766Z,4.60
2022-11-10T06:39:12.903Z,4.55
2022-11-10T06:41:58.167Z,4.45
2022-11-10T06:44:43.114Z,4.80
2022-11-10T06:47:28.295Z,4.90
2022-11-10T06:50:14.092Z,5.38
2022-11-10T06:53:00.339Z,5.65
2022-11-10T06:55:45.857Z,5.07
2022-11-10T06:58:30.831Z,5.65
2022-11-10T07:01:21.277Z,5.20
2022-11-10T07:04:19.712Z,4.80
2022-11-10T07:07:05.569Z,4.80
2022-11-10T07:09:50.752Z,5.50
2022-11-10T07:12:35.855Z,5.88
2022-11-10T07:15:20.881Z,5.10
2022-11-10T07:18:05.870Z,4.88
2022-11-10T07:20:51.014Z,4.28
2022-11-10T07:23:36.046Z,5.47
2022-11-10T07:26:21.197Z,4.50
2022-11-10T07:29:06.334Z,5.40
2022-11-10T07:31:51.747Z,5.00
2022-11-10T07:34:36.894Z,4.78
2022-11-10T07:37:21.811Z,4.93
2022-11-10T07:40:07.442Z,5.78
2022-11-10T07:42:52.649Z,5.15
2022-11-10T07:45:37.794Z,5.13
2022-11-10T07:48:23.530Z,5.60
2022-11-10T07:51:08.565Z,5.50
2022-11-10T07:53:53.703Z,4.85
2022-11-10T07:56:38.858Z,4.72
2022-11-10T07:59:23.836Z,4.93
2022-11-10T08:02:11.614Z,4.68
2022-11-10T08:04:56.878Z,5.35
2022-11-10T08:07:42.249Z,4.88
2022-11-10T08:10:28.581Z,4.82
2022-11-10T08:13:14.270Z,4.93
2022-11-10T08:15:59.556Z,5.10
2022-11-10T08:18:44.962Z,4.53
2022-11-10T08:21:31.041Z,5.20
2022-11-10T08:24:15.956Z,5.22
2022-11-10T08:27:01.123Z,5.00
2022-11-10T08:29:46.123Z,4.95
2022-11-10T08:32:31.344Z,5.18
2022-11-10T08:35:16.406Z,5.28
2022-11-10T08:38:13.155Z,5.43
2022-11-10T08:40:58.235Z,5.13
2022-11-10T08:43:43.640Z,4.85
2022-11-10T08:46:28.816Z,5.38
2022-11-10T08:49:13.855Z,5.55
2022-11-10T08:51:58.764Z,5.47
2022-11-10T08:54:43.767Z,5.70
2022-11-10T08:57:28.585Z,5.05
2022-11-10T09:00:17.388Z,5.95
2022-11-10T09:03:15.028Z,5.03
2022-11-10T09:05:59.949Z,5.00
2022-11-10T09:08:44.935Z,5.10
2022-11-10T09:11:30.864Z,5.15
2022-11-10T09:14:16.079Z,5.40
2022-11-10T09:17:01.078Z,5.32
2022-11-10T09:19:46.078Z,5.15
2022-11-10T09:22:31.075Z,5.25
2022-11-10T09:25:16.222Z,5.40
2022-11-10T09:28:02.254Z,5.85
2022-11-10T09:30:49.644Z,5.25
2022-11-10T09:33:34.707Z,5.30
2022-11-10T09:36:19.941Z,5.47
2022-11-10T09:39:05.099Z,5.07
2022-11-10T09:41:50.647Z,5.20
2022-11-10T09:44:51.982Z,5.45
2022-11-10T09:47:57.510Z,4.45
2022-11-10T09:50:53.953Z,7.00
2022-11-10T09:53:58.785Z,5.05
2022-11-10T09:56:44.095Z,5.25
2022-11-10T09:59:32.379Z,5.63
2022-11-10T10:02:38.702Z,5.22
2022-11-10T10:05:46.337Z,5.25
2022-11-10T10:08:58.892Z,5.15
2022-11-10T10:12:03.615Z,4.90
2022-11-10T10:15:13.529Z,5.00
2022-11-10T10:18:07.456Z,4.70
2022-11-10T10:21:24.891Z,5.03
2022-11-10T10:24:21.435Z,5.18
2022-11-10T10:27:14.936Z,4.78
2022-11-10T10:30:00.265Z,5.20
2022-11-10T10:32:45.583Z,5.35
2022-11-10T10:35:31.899Z,4.90
2022-11-10T10:38:30.705Z,4.88
2022-11-10T10:41:25.071Z,4.78
2022-11-10T10:44:14.446Z,4.40
2022-11-10T10:47:01.500Z,5.15
2022-11-10T10:49:46.678Z,4.80
2022-11-10T10:52:32.311Z,4.55
2022-11-10T10:55:17.780Z,4.55
2022-11-10T10:58:24.840Z,4.50
2022-11-10T11:01:16.271Z,4.47
2022-11-10T11:04:06.279Z,4.55
2022-11-10T11:07:01.003Z,4.40
2022-11-10T11:09:46.082Z,4.40
2022-11-10T11:12:33.758Z,3.65
2022-11-10T11:15:18.650Z,4.10
2022-11-10T11:18:13.096Z,3.85
2022-11-10T11:21:07.128Z,3.58
2022-11-10T11:24:10.763Z,3.55
2022-11-10T11:27:05.070Z,3.50
2022-11-10T11:29:52.896Z,3.97
2022-11-10T11:32:52.928Z,3.80
2022-11-10T11:35:43.766Z,3.55
2022-11-10T11:38:42.835Z,3.80
2022-11-10T11:41:42.233Z,3.50
2022-11-10T11:44:45.199Z,3.53
2022-11-10T11:47:55.028Z,3.92
2022-11-10T11:50:50.882Z,3.30
2022-11-10T11:53:59.641Z,3.33
2022-11-10T11:56:49.540Z,2.90
2022-11-10T11:59:57.113Z,3.20
2022-11-10T12:03:29.788Z,3.53
2022-11-10T12:09:27.131Z,3.15
2022-11-10T12:12:48.845Z,2.88
2022-11-10T12:16:10.487Z,3.30
2022-11-10T12:19:31.316Z,3.95
2022-11-10T12:22:42.293Z,3.40
2022-11-10T12:26:00.547Z,3.08
2022-11-10T12:29:14.774Z,3.20
2022-11-10T12:32:33.343Z,4.03
2022-11-10T12:35:28.702Z,5.30
2022-11-10T12:38:20.266Z,4.38
2022-11-10T12:41:20.383Z,3.70
2022-11-10T12:44:21.172Z,4.65
2022-11-10T12:47:11.918Z,4.35
2022-11-10T12:50:04.407Z,3.60
2022-11-10T12:52:56.489Z,3.20
2022-11-10T12:58:28.821Z,3.42
2022-11-10T13:01:18.563Z,3.28
2022-11-10T13:04:05.504Z,2.90
2022-11-10T13:06:57.465Z,3.30
2022-11-10T13:09:43.909Z,3.30
2022-11-10T13:12:29.192Z,3.42
2022-11-10T13:15:39.420Z,3.30
2022-11-10T13:18:30.310Z,3.20
2022-11-10T13:21:15.298Z,3.33
2022-11-10T13:24:02.415Z,2.85
2022-11-10T13:26:58.862Z,3.47
2022-11-10T13:29:43.821Z,3.53
2022-11-10T13:32:35.759Z,3.50
2022-11-10T13:38:42.751Z,3.67
2022-11-10T13:41:27.802Z,3.58
2022-11-10T13:44:32.288Z,4.60
2022-11-10T13:47:37.679Z,9.23
2022-11-10T13:50:54.091Z,5.60
2022-11-10T13:54:02.817Z,3.83
2022-11-10T13:57:07.623Z,3.30
2022-11-10T13:59:56.520Z,3.28
2022-11-10T14:02:53.662Z,3.20
2022-11-10T14:05:39.743Z,3.20
2022-11-10T14:08:29.578Z,3.20
2022-11-10T14:11:42.101Z,3.20
2022-11-10T14:14:39.656Z,2.90
2022-11-10T14:17:32.633Z,3.47
2022-11-10T14:20:39.159Z,4.13
2022-11-10T14:23:43.496Z,3.88
2022-11-10T14:26:46.678Z,3.63
2022-11-10T14:29:40.232Z,3.40
2022-11-10T14:32:26.498Z,3.15
2022-11-10T14:35:21.290Z,3.97
2022-11-10T14:38:20.360Z,3.60
2022-11-10T14:41:07.179Z,3.47
2022-11-10T14:44:01.642Z,3.50
2022-11-10T14:46:46.882Z,3.67
2022-11-10T14:49:32.183Z,7.30
2022-11-10T14:52:17.448Z,4.50
2022-11-10T14:55:07.259Z,4.70
2022-11-10T14:58:26.180Z,4.38
2022-11-10T15:01:25.171Z,4.80
2022-11-10T15:04:11.899Z,3.30
2022-11-10T15:06:58.862Z,3.40
2022-11-10T15:10:20.448Z,3.60
2022-11-10T15:13:12.947Z,3.50
2022-11-10T15:16:29.080Z,3.80
2022-11-10T15:19:31.163Z,3.85
2022-11-10T15:22:29.273Z,3.28
2022-11-10T15:25:18.707Z,3.42
2022-11-10T15:28:14.285Z,3.30
2022-11-10T15:31:09.382Z,3.58
2022-11-10T15:34:00.236Z,3.50
2022-11-10T15:36:45.464Z,3.35
2022-11-10T15:39:30.790Z,3.70
2022-11-10T15:42:18.646Z,3.55
2022-11-10T15:45:03.972Z,3.53
2022-11-10T15:47:49.163Z,3.60
2022-11-10T15:50:34.595Z,3.22
2022-11-10T15:53:41.592Z,3.38
2022-11-10T15:56:26.780Z,2.90
2022-11-10T15:59:12.108Z,3.10
2022-11-10T16:01:57.341Z,3.25
2022-11-10T16:04:42.831Z,3.25
2022-11-10T16:07:27.991Z,4.00
2022-11-10T16:10:12.968Z,3.58
2022-11-10T16:12:58.018Z,3.40
2022-11-10T16:15:43.537Z,3.35
2022-11-10T16:18:30.328Z,3.70
2022-11-10T16:21:19.315Z,3.40
2022-11-10T16:24:04.538Z,3.53
2022-11-10T16:26:49.708Z,3.72
2022-11-10T16:29:36.100Z,3.88
2022-11-10T16:32:21.396Z,4.35
2022-11-10T16:35:11.982Z,4.22
2022-11-10T16:37:56.943Z,4.80
2022-11-10T16:40:42.085Z,4.40
2022-11-10T16:43:28.703Z,4.30
2022-11-10T16:46:20.366Z,4.63
2022-11-10T16:49:15.741Z,4.68
2022-11-10T16:52:11.430Z,4.47
2022-11-10T16:54:56.678Z,4.50
2022-11-10T16:57:41.678Z,4.47
2022-11-10T17:00:27.351Z,5.20
2022-11-10T17:03:20.771Z,5.10
2022-11-10T17:06:06.301Z,4.22
2022-11-10T17:08:53.017Z,4.78
2022-11-10T17:11:38.058Z,5.15
2022-11-10T17:14:23.039Z,4.80
2022-11-10T17:17:16.224Z,5.00
2022-11-10T17:20:01.185Z,4.10
2022-11-10T17:22:47.065Z,4.00
2022-11-10T17:25:35.365Z,3.63
2022-11-10T17:28:20.451Z,4.30
2022-11-10T17:31:05.676Z,5.22
2022-11-10T17:33:50.596Z,3.85
2022-11-10T17:36:35.719Z,4.60
2022-11-10T17:39:22.422Z,3.78
2022-11-10T17:42:12.940Z,3.95
2022-11-10T17:44:57.795Z,3.83
2022-11-10T17:47:42.672Z,3.85
2022-11-10T17:50:27.748Z,3.92
2022-11-10T17:53:19.758Z,4.00
2022-11-10T17:56:05.318Z,4.00
2022-11-10T17:58:50.230Z,4.20
2022-11-10T18:01:35.439Z,5.53
2022-11-10T18:04:20.575Z,5.47
2022-11-10T18:07:05.617Z,4.80
2022-11-10T18:09:50.874Z,4.53
2022-11-10T18:12:36.082Z,4.30
2022-11-10T18:15:21.560Z,4.18
2022-11-10T18:18:06.709Z,4.00
2022-11-10T18:20:51.746Z,3.88
2022-11-10T18:23:37.259Z,3.75
2022-11-10T18:26:22.132Z,4.30
2022-11-10T18:29:07.033Z,4.13
2022-11-10T18:31:52.124Z,3.95
2022-11-10T18:34:37.347Z,4.03
2022-11-10T18:37:22.574Z,4.18
2022-11-10T18:40:08.402Z,4.05
2022-11-10T18:43:05.965Z,4.88
2022-11-10T18:45:53.508Z,4.70
2022-11-10T18:48:38.554Z,4.50
2022-11-10T18:51:23.763Z,3.78
2022-11-10T18:54:09.189Z,4.35
2022-11-10T18:56:54.463Z,4.45
2022-11-10T18:59:40.092Z,4.13
2022-11-10T19:02:25.111Z,4.10
2022-11-10T19:05:10.203Z,4.25
2022-11-10T19:07:55.495Z,3.90
2022-11-10T19:10:43.674Z,4.38
2022-11-10T19:13:28.746Z,4.60
2022-11-10T19:16:16.746Z,4.57
2022-11-10T19:19:01.887Z,4.40
2022-11-10T19:21:47.183Z,5.30
2022-11-10T19:24:42.380Z,4.90
2022-11-10T19:27:36.943Z,4.95
2022-11-10T19:30:21.971Z,5.07
2022-11-10T19:33:07.278Z,5.03
2022-11-10T19:35:52.176Z,4.93
2022-11-10T19:38:37.556Z,5.05
2022-11-10T19:41:25.730Z,5.30
2022-11-10T19:44:11.108Z,5.70
2022-11-10T19:46:56.163Z,5.80
2022-11-10T19:49:41.116Z,5.55
2022-11-10T19:52:26.022Z,5.78
2022-11-10T19:55:11.271Z,6.10
2022-11-10T19:57:56.223Z,5.50
2022-11-10T20:00:45.848Z,5.60
2022-11-10T20:03:31.219Z,5.95
2022-11-10T20:06:20.640Z,5.80
2022-11-10T20:09:05.816Z,5.90
2022-11-10T20:11:51.004Z,5.78
2022-11-10T20:14:36.094Z,6.10
2022-11-10T20:17:20.891Z,6.45
2022-11-10T20:20:07.168Z,6.88
2022-11-10T20:22:52.290Z,6.35
2022-11-10T20:25:38.081Z,6.65
2022-11-10T20:28:23.205Z,6.50
2022-11-10T20:31:11.288Z,6.55
2022-11-10T20:33:56.668Z,7.53
2022-11-10T20:36:41.710Z,7.90
2022-11-10T20:39:26.615Z,7.20
2022-11-10T20:42:11.981Z,7.43
2022-11-10T20:44:56.971Z,7.53
2022-11-10T20:47:42.163Z,7.93
2022-11-10T20:50:27.054Z,7.80
2022-11-10T20:53:12.410Z,6.97
2022-11-10T20:55:59.407Z,7.28
2022-11-10T20:58:45.096Z,7.20
2022-11-10T21:01:30.506Z,7.55
2022-11-10T21:04:15.723Z,7.00
2022-11-10T21:07:00.964Z,7.35
2022-11-10T21:09:45.984Z,7.25
2022-11-10T21:12:49.219Z,7.60
2022-11-10T21:15:37.767Z,7.43
2022-11-10T21:18:34.313Z,7.60
2022-11-10T21:21:22.481Z,7.13
2022-11-10T21:24:08.508Z,7.45
2022-11-10T21:26:54.906Z,7.20
2022-11-10T21:29:42.148Z,7.18
2022-11-10T21:32:27.345Z,7.07
2022-11-10T21:35:13.562Z,7.32
2022-11-10T21:37:58.929Z,7.50
2022-11-10T21:40:43.938Z,7.78
2022-11-10T21:43:29.145Z,7.97
2022-11-10T21:46:14.410Z,8.13
2022-11-10T21:49:04.541Z,7.70
2022-11-10T21:51:52.331Z,7.90
2022-11-10T21:54:37.715Z,7.85
2022-11-10T21:57:22.933Z,8.43
2022-11-10T22:00:09.690Z,7.93
2022-11-10T22:03:00.135Z,7.65
2022-11-10T22:05:45.096Z,7.93
2022-11-10T22:08:30.154Z,8.20
2022-11-10T22:11:36.492Z,8.00
2022-11-10T22:14:40.270Z,8.48
2022-11-10T22:17:44.087Z,8.38
2022-11-10T22:20:29.414Z,8.55
2022-11-10T22:23:14.671Z,8.70
2022-11-10T22:25:59.456Z,8.02
2022-11-10T22:28:45.321Z,8.82
2022-11-10T22:31:32.851Z,8.18
2022-11-10T22:34:19.071Z,8.27
2022-11-10T22:37:04.138Z,8.65
2022-11-10T22:40:08.033Z,8.30
2022-11-10T22:43:12.047Z,8.52
2022-11-10T22:45:57.172Z,8.45
2022-11-10T22:48:41.986Z,8.50
2022-11-10T22:51:29.566Z,7.88
2022-11-10T22:54:17.044Z,8.90
2022-11-10T22:57:01.924Z,8.32
2022-11-10T22:59:47.184Z,8.27
2022-11-10T23:02:32.093Z,8.25
2022-11-10T23:05:17.240Z,8.27
2022-11-10T23:08:03.009Z,8.45
2022-11-10T23:10:48.180Z,8.23
2022-11-10T23:13:35.397Z,8.60
2022-11-10T23:16:26.193Z,8.85
2022-11-10T23:19:11.215Z,8.13
2022-11-10T23:21:56.501Z,9.00
2022-11-10T23:24:41.814Z,8.80
2022-11-10T23:27:26.989Z,8.27
2022-11-10T23:30:12.471Z,8.38
2022-11-10T23:32:57.556Z,8.80
2022-11-10T23:35:42.542Z,8.68
2022-11-10T23:38:32.911Z,9.05
2022-11-10T23:41:20.612Z,9.30
2022-11-10T23:44:05.851Z,8.90
2022-11-10T23:46:50.853Z,9.85
2022-11-10T23:49:35.808Z,9.98
2022-11-10T23:52:20.888Z,9.75
2022-11-10T23:55:06.618Z,9.95
2022-11-10T23:57:51.946Z,10.10
